Time;durP1;ratioP1;P1;durP2;ratioP2;P2;SDS_P1;SDS_P2;PMS_P1;PMS_P2;Temp;Humidity;BMP_temperature;BMP_pressure;BME280_temperature;BME280_humidity;BME280_pressure;Samples;Min_cycle;Max_cycle;Signal;HPM_P1;HPM_P2
2023/04/02 00:02:19;;;;;;;1.13;0.60;;;;;;;-147.53;100.00;57128.34;10102606;29;20518;-85
2023/04/02 00:07:32;;;;;;;0.10;0.10;;;;;;;-147.53;100.00;57128.34;10098275;29;20041;-85
2023/04/02 00:12:34;;;;;;;0.20;0.20;;;;;;;-147.53;100.00;57128.34;10116625;29;20059;-85
2023/04/02 00:17:36;;;;;;;0.90;0.50;;;;;;;-147.53;100.00;57128.34;10119134;29;20061;-85
2023/04/02 00:22:43;;;;;;;1.45;1.13;;;;;;;-147.53;100.00;57128.34;10101143;29;20556;-86
2023/04/02 00:27:45;;;;;;;0.10;0.10;;;;;;;-147.53;100.00;57128.34;10084890;29;20056;-86
2023/04/02 00:33:11;;;;;;;0.10;0.10;;;;;;;-147.53;100.00;57128.34;10090674;29;20061;-85
2023/04/02 00:38:21;;;;;;;0.25;0.25;;;;;;;-147.53;100.00;57128.34;10087429;29;20049;-85
2023/04/02 00:43:38;;;;;;;0.52;0.30;;;;;;;-147.53;100.00;57128.34;10107067;29;20061;-85
2023/04/02 00:49:13;;;;;;;0.08;0.08;;;;;;;-147.53;100.00;57128.34;10068672;29;20119;-86
2023/04/02 00:54:24;;;;;;;0.20;0.20;;;;;;;-147.53;100.00;57128.34;10082132;29;20060;-86
2023/04/02 00:59:26;;;;;;;0.10;0.10;;;;;;;-147.53;100.00;57128.34;10098332;29;20049;-86
2023/04/02 01:04:33;;;;;;;5.57;1.95;;;;;;;-147.53;100.00;57128.34;10088294;29;20086;-85
2023/04/02 01:10:08;;;;;;;1.50;0.82;;;;;;;-147.53;100.00;57128.34;10108413;29;20790;-85
2023/04/02 01:15:40;;;;;;;0.40;0.40;;;;;;;-147.53;100.00;57128.34;10086418;29;20057;-86
2023/04/02 01:21:16;;;;;;;0.22;0.10;;;;;;;-147.53;100.00;57128.34;10092258;29;20113;-85
2023/04/02 01:26:45;;;;;;;0.55;0.45;;;;;;;-147.53;100.00;57128.34;10108256;29;20057;-86
2023/04/02 01:31:48;;;;;;;0.68;0.30;;;;;;;-147.53;100.00;57128.34;10076863;29;20049;-85
2023/04/02 01:36:59;;;;;;;0.30;0.30;;;;;;;-147.53;100.00;57128.34;10079525;29;20057;-85
2023/04/02 01:42:32;;;;;;;0.75;0.35;;;;;;;-147.53;100.00;57128.34;10089283;29;20099;-86
2023/04/02 01:47:41;;;;;;;0.73;0.73;;;;;;;-147.53;100.00;57128.34;10074831;29;20109;-85
2023/04/02 01:52:46;;;;;;;0.13;0.13;;;;;;;-147.53;100.00;57128.34;10074316;29;20065;-85
2023/04/02 01:57:51;;;;;;;0.45;0.38;;;;;;;-147.53;100.00;57128.34;10090053;29;20130;-86
2023/04/02 02:02:54;;;;;;;0.10;0.10;;;;;;;-147.53;100.00;57128.34;10079515;29;20581;-86
2023/04/02 02:07:57;;;;;;;0.30;0.30;;;;;;;-147.53;100.00;57128.34;10086020;29;20045;-85
2023/04/02 02:12:59;;;;;;;0.73;0.43;;;;;;;-147.53;100.00;57128.34;10095565;29;20053;-85
2023/04/02 02:18:04;;;;;;;0.10;0.10;;;;;;;-147.53;100.00;57128.34;10110801;29;20550;-85
2023/04/02 02:23:07;;;;;;;0.10;0.10;;;;;;;-147.53;100.00;57128.34;10094870;29;20140;-85
2023/04/02 02:28:22;;;;;;;0.10;0.10;;;;;;;-147.53;100.00;57128.34;10095025;29;20454;-85
2023/04/02 02:33:25;;;;;;;1.08;0.40;;;;;;;-147.53;100.00;57128.34;10083861;29;20057;-86
2023/04/02 02:38:34;;;;;;;0.17;0.17;;;;;;;-147.53;100.00;57128.34;10082017;29;20521;-86
2023/04/02 02:43:51;;;;;;;0.30;0.30;;;;;;;-147.53;100.00;57128.34;10078146;29;20053;-86
2023/04/02 02:48:56;;;;;;;0.40;0.40;;;;;;;-147.53;100.00;57128.34;10095296;29;20047;-86
2023/04/02 02:54:03;;;;;;;0.28;0.20;;;;;;;-147.53;100.00;57128.34;10101775;29;20049;-85
2023/04/02 02:59:12;;;;;;;0.10;0.10;;;;;;;-147.53;100.00;57128.34;10075309;29;20061;-86
2023/04/02 03:04:21;;;;;;;0.10;0.10;;;;;;;-147.53;100.00;57128.34;10066223;29;20132;-86
2023/04/02 03:09:55;;;;;;;0.20;0.20;;;;;;;-147.53;100.00;57128.34;10078396;29;20041;-86
2023/04/02 03:15:47;;;;;;;0.13;0.13;;;;;;;-147.53;100.00;57128.34;10065052;29;20475;-86
2023/04/02 03:21:15;;;;;;;0.10;0.10;;;;;;;-147.53;100.00;57128.34;10079654;29;20048;-86
2023/04/02 03:26:23;;;;;;;0.15;0.15;;;;;;;-147.53;100.00;57128.34;10091158;29;20044;-86
2023/04/02 03:31:54;;;;;;;0.65;0.65;;;;;;;-147.53;100.00;57128.34;10062440;29;20489;-87
2023/04/02 03:37:18;;;;;;;0.28;0.28;;;;;;;-147.53;100.00;57128.34;10072024;29;20173;-86
2023/04/02 03:42:40;;;;;;;0.20;0.20;;;;;;;-147.53;100.00;57128.34;10088731;29;20518;-86
2023/04/02 03:48:29;;;;;;;0.10;0.10;;;;;;;-147.53;100.00;57128.34;10076883;29;20055;-86
2023/04/02 03:53:38;;;;;;;0.30;0.20;;;;;;;-147.53;100.00;57128.34;10037980;29;20492;-86
2023/04/02 03:59:05;;;;;;;0.10;0.10;;;;;;;-147.53;100.00;57128.34;10084719;29;20076;-86
2023/04/02 04:04:14;;;;;;;0.30;0.30;;;;;;;-147.53;100.00;57128.34;10082783;29;20055;-86
2023/04/02 04:09:40;;;;;;;0.10;0.10;;;;;;;-147.53;100.00;57128.34;10083516;29;20554;-86
2023/04/02 04:15:03;;;;;;;0.45;0.45;;;;;;;-147.53;100.00;57128.34;10085474;29;20470;-86
2023/04/02 04:20:39;;;;;;;0.10;0.10;;;;;;;-147.53;100.00;57128.34;10109734;29;20130;-86
2023/04/02 04:25:40;;;;;;;0.10;0.10;;;;;;;-147.53;100.00;57128.34;10100554;29;20692;-86
2023/04/02 04:31:16;;;;;;;0.80;0.40;;;;;;;-147.53;100.00;57128.34;10109462;29;20106;-86
2023/04/02 04:36:32;;;;;;;0.10;0.10;;;;;;;-147.53;100.00;57128.34;10073661;29;20521;-86
2023/04/02 04:41:43;;;;;;;0.10;0.10;;;;;;;-147.53;100.00;57128.34;10070613;29;20044;-86
2023/04/02 04:47:01;;;;;;;0.10;0.10;;;;;;;-147.53;100.00;57128.34;10062737;29;20081;-86
2023/04/02 04:52:15;;;;;;;0.57;0.57;;;;;;;-147.53;100.00;57128.34;10096165;29;20050;-86
2023/04/02 04:57:40;;;;;;;3.90;1.45;;;;;;;-147.53;100.00;57128.34;10082443;29;20582;-86
2023/04/02 05:02:52;;;;;;;0.10;0.10;;;;;;;-147.53;100.00;57128.34;10082890;29;20084;-86
2023/04/02 05:08:04;;;;;;;1.13;0.82;;;;;;;-147.53;100.00;57128.34;10123437;29;20584;-86
2023/04/02 05:13:09;;;;;;;0.10;0.10;;;;;;;-147.53;100.00;57128.34;10084588;29;20059;-86
2023/04/02 05:18:57;;;;;;;0.30;0.20;;;;;;;-147.53;100.00;57128.34;10089649;29;20776;-86
2023/04/02 05:24:28;;;;;;;0.40;0.40;;;;;;;-147.53;100.00;57128.34;10077923;29;20076;-87
2023/04/02 05:29:42;;;;;;;0.10;0.10;;;;;;;-147.53;100.00;57128.34;10090266;29;20108;-87
2023/04/02 05:34:52;;;;;;;;;;;;;;;-147.53;100.00;57128.34;10099227;29;20045;-86
2023/04/02 05:40:13;;;;;;;1.17;1.10;;;;;;;-147.53;100.00;57128.34;10099713;29;19923;-86
2023/04/02 05:45:23;;;;;;;0.17;0.13;;;;;;;-147.53;100.00;57128.34;10100975;29;20068;-85
2023/04/02 05:50:32;;;;;;;0.10;0.10;;;;;;;-147.53;100.00;57128.34;10099170;29;20079;-87
2023/04/02 05:56:03;;;;;;;0.10;0.10;;;;;;;-147.53;100.00;57128.34;10093076;29;20525;-86
2023/04/02 06:01:30;;;;;;;0.10;0.10;;;;;;;-147.53;100.00;57128.34;10062957;29;20144;-85
2023/04/02 06:06:38;;;;;;;0.15;0.10;;;;;;;-147.53;100.00;57128.34;10087063;29;20420;-83
2023/04/02 06:11:47;;;;;;;0.45;0.40;;;;;;;-147.53;100.00;57128.34;10130826;29;20096;-84
2023/04/02 06:16:56;;;;;;;0.20;0.20;;;;;;;-147.53;100.00;57128.34;10128443;29;20064;-84
2023/04/02 06:22:34;;;;;;;0.10;0.10;;;;;;;-147.53;100.00;57128.34;10099334;29;20429;-84
2023/04/02 06:27:44;;;;;;;0.10;0.10;;;;;;;-147.53;100.00;57128.34;10111777;29;20151;-86
2023/04/02 06:32:49;;;;;;;0.30;0.30;;;;;;;-147.53;100.00;57128.34;10087606;29;20060;-86
2023/04/02 06:37:56;;;;;;;0.40;0.40;;;;;;;-147.53;100.00;57128.34;10090098;29;20104;-85
2023/04/02 06:43:25;;;;;;;0.10;0.10;;;;;;;-147.53;100.00;57128.34;10078743;29;20422;-84
2023/04/02 06:48:34;;;;;;;0.10;0.10;;;;;;;-147.53;100.00;57128.34;10062495;29;20077;-85
2023/04/02 06:53:40;;;;;;;0.15;0.15;;;;;;;-147.53;100.00;57128.34;10105269;29;20049;-85
2023/04/02 06:58:45;;;;;;;0.27;0.27;;;;;;;-147.53;100.00;57128.34;10104581;29;20398;-84
2023/04/02 07:03:55;;;;;;;0.10;0.10;;;;;;;-147.53;100.00;57128.34;10084982;29;20148;-84
2023/04/02 07:09:08;;;;;;;0.17;0.17;;;;;;;-147.53;100.00;57128.34;10079210;29;20474;-84
2023/04/02 07:14:16;;;;;;;0.10;0.10;;;;;;;-147.53;100.00;57128.34;10081078;29;20136;-84
2023/04/02 07:19:22;;;;;;;0.17;0.17;;;;;;;-147.53;100.00;57128.34;10081916;29;20267;-84
2023/04/02 07:24:29;;;;;;;0.28;0.22;;;;;;;-147.53;100.00;57128.34;10097506;29;20458;-84
2023/04/02 07:29:31;;;;;;;0.47;0.38;;;;;;;-147.53;100.00;57128.34;10093616;29;20049;-85
2023/04/02 07:34:36;;;;;;;0.13;0.13;;;;;;;-147.53;100.00;57128.34;10101100;29;20048;-84
2023/04/02 07:39:41;;;;;;;4.97;0.90;;;;;;;-147.53;100.00;57128.34;10068041;29;20073;-83
2023/04/02 07:44:46;;;;;;;0.20;0.20;;;;;;;-147.53;100.00;57128.34;10093836;29;20470;-84
2023/04/02 07:50:14;;;;;;;0.52;0.35;;;;;;;-147.53;100.00;57128.34;10081652;29;20521;-84
2023/04/02 07:55:27;;;;;;;0.20;0.20;;;;;;;-147.53;100.00;57128.34;10073640;29;20141;-84
2023/04/02 08:00:37;;;;;;;2.85;0.22;;;;;;;-147.53;100.00;57128.34;10084970;29;20549;-85
2023/04/02 08:05:56;;;;;;;0.63;0.30;;;;;;;-147.53;100.00;57128.34;10079386;29;20059;-85
2023/04/02 08:11:03;;;;;;;0.85;0.57;;;;;;;-147.53;100.00;57128.34;10080943;29;20060;-85
2023/04/02 08:16:10;;;;;;;0.25;0.25;;;;;;;-147.53;100.00;57128.34;10078634;29;20086;-85
2023/04/02 08:21:41;;;;;;;0.15;0.15;;;;;;;-147.53;100.00;57128.34;10077937;29;20071;-84
2023/04/02 08:26:53;;;;;;;4.25;0.50;;;;;;;-147.53;100.00;57128.34;10098691;29;20461;-84
2023/04/02 08:32:12;;;;;;;1.48;0.52;;;;;;;-147.53;100.00;57128.34;10094197;29;20040;-85
2023/04/02 08:37:23;;;;;;;1.33;0.45;;;;;;;-147.53;100.00;57128.34;10086407;29;20144;-82
2023/04/02 08:42:40;;;;;;;1.02;0.85;;;;;;;-147.53;100.00;57128.34;10074322;29;20081;-82
2023/04/02 08:47:46;;;;;;;0.55;0.30;;;;;;;-147.53;100.00;57128.34;10095127;29;20656;-85
2023/04/02 08:53:16;;;;;;;0.40;0.30;;;;;;;-147.53;100.00;57128.34;10093936;29;20112;-84
2023/04/02 08:58:55;;;;;;;2.58;1.10;;;;;;;-147.53;100.00;57128.34;10096361;29;20077;-83
2023/04/02 09:03:58;;;;;;;0.30;0.30;;;;;;;-147.53;100.00;57128.34;10107708;29;20041;-84
2023/04/02 09:09:00;;;;;;;0.20;0.20;;;;;;;-147.53;100.00;57128.34;10096921;29;20055;-84
2023/04/02 09:14:12;;;;;;;0.77;0.32;;;;;;;-147.53;100.00;57128.34;10113952;29;20100;-86
2023/04/02 09:19:30;;;;;;;0.20;0.20;;;;;;;-147.53;100.00;57128.34;10090032;29;20056;-83
2023/04/02 09:24:32;;;;;;;1.17;0.32;;;;;;;-147.53;100.00;57128.34;10104988;29;20068;-84
2023/04/02 09:29:41;;;;;;;1.20;0.52;;;;;;;-147.53;100.00;57128.34;10089972;29;20169;-84
2023/04/02 09:34:43;;;;;;;6.32;0.60;;;;;;;-147.53;100.00;57128.34;10097665;29;20064;-83
2023/04/02 09:39:48;;;;;;;6.13;0.90;;;;;;;-147.53;100.00;57128.34;10105127;29;20056;-84
2023/04/02 09:44:50;;;;;;;0.10;0.10;;;;;;;-147.53;100.00;57128.34;10090774;29;20394;-84
2023/04/02 09:49:52;;;;;;;0.80;0.75;;;;;;;-147.53;100.00;57128.34;10082318;29;20140;-84
2023/04/02 09:55:27;;;;;;;0.20;0.20;;;;;;;-147.53;100.00;57128.34;10074380;29;20068;-83
2023/04/02 10:00:29;;;;;;;0.30;0.30;;;;;;;-147.53;100.00;57128.34;10090536;29;20060;-84
2023/04/02 10:05:34;;;;;;;0.60;0.22;;;;;;;-147.53;100.00;57128.34;10100379;29;20113;-84
2023/04/02 10:10:43;;;;;;;1.15;0.63;;;;;;;-147.53;100.00;57128.34;10091346;29;20045;-84
2023/04/02 10:16:23;;;;;;;0.40;0.32;;;;;;;-147.53;100.00;57128.34;10124712;29;20049;-83
2023/04/02 10:21:31;;;;;;;0.20;0.20;;;;;;;-147.53;100.00;57128.34;10095739;29;20061;-84
2023/04/02 10:26:46;;;;;;;0.77;0.70;;;;;;;-147.53;100.00;57128.34;10121127;29;20056;-84
2023/04/02 10:31:54;;;;;;;0.38;0.30;;;;;;;-147.53;100.00;57128.34;10120420;29;20049;-84
2023/04/02 10:37:07;;;;;;;1.35;0.52;;;;;;;-147.53;100.00;57128.34;10101745;29;20056;-83
2023/04/02 10:42:29;;;;;;;0.30;0.30;;;;;;;-147.53;100.00;57128.34;10108278;29;20493;-84
2023/04/02 10:47:41;;;;;;;0.25;0.22;;;;;;;-147.53;100.00;57128.34;10111046;29;20065;-84
2023/04/02 10:52:55;;;;;;;0.40;0.30;;;;;;;-147.53;100.00;57128.34;10100466;29;20056;-83
2023/04/02 10:58:06;;;;;;;0.20;0.20;;;;;;;-147.53;100.00;57128.34;10118728;29;20048;-84
2023/04/02 11:03:42;;;;;;;0.70;0.43;;;;;;;-147.53;100.00;57128.34;10093894;29;20048;-84
2023/04/02 11:08:54;;;;;;;0.22;0.13;;;;;;;-147.53;100.00;57128.34;10113446;29;20052;-84
2023/04/02 11:14:05;;;;;;;0.93;0.30;;;;;;;-147.53;100.00;57128.34;10111328;29;20509;-84
2023/04/02 11:19:14;;;;;;;0.17;0.13;;;;;;;-147.53;100.00;57128.34;10091958;29;20056;-84
2023/04/02 11:24:47;;;;;;;0.10;0.10;;;;;;;-147.53;100.00;57128.34;10105973;29;20045;-84
2023/04/02 11:29:54;;;;;;;0.65;0.47;;;;;;;-147.53;100.00;57128.34;10102748;29;20394;-84
2023/04/02 11:35:00;;;;;;;2.55;0.50;;;;;;;-147.53;100.00;57128.34;10093657;29;20143;-84
2023/04/02 11:40:12;;;;;;;0.45;0.30;;;;;;;-147.53;100.00;57128.34;10095071;29;20481;-84
2023/04/02 11:45:20;;;;;;;1.00;0.32;;;;;;;-147.53;100.00;57128.34;10105894;29;20095;-84
2023/04/02 11:50:36;;;;;;;0.20;0.20;;;;;;;-147.53;100.00;57128.34;10099115;29;20049;-84
2023/04/02 11:55:41;;;;;;;0.10;0.10;;;;;;;-147.53;100.00;57128.34;10121615;29;20088;-85
2023/04/02 12:01:14;;;;;;;1.67;0.52;;;;;;;-147.53;100.00;57128.34;10092509;29;20056;-85
2023/04/02 12:06:59;;;;;;;0.32;0.20;;;;;;;-147.53;100.00;57128.34;10111732;29;20100;-85
2023/04/02 12:12:16;;;;;;;0.55;0.20;;;;;;;-147.53;100.00;57128.34;10106121;29;20090;-84
2023/04/02 12:17:22;;;;;;;0.20;0.20;;;;;;;-147.53;100.00;57128.34;10105971;29;20444;-84
2023/04/02 12:22:30;;;;;;;0.52;0.25;;;;;;;-147.53;100.00;57128.34;10097479;29;20056;-83
2023/04/02 12:27:31;;;;;;;0.20;0.20;;;;;;;-147.53;100.00;57128.34;10137716;29;20056;-82
2023/04/02 12:32:33;;;;;;;1.75;0.38;;;;;;;-147.53;100.00;57128.34;10118598;29;20060;-82
2023/04/02 12:37:37;;;;;;;0.75;0.50;;;;;;;-147.53;100.00;57128.34;10095746;29;20049;-85
2023/04/02 12:42:42;;;;;;;3.35;0.52;;;;;;;-147.53;100.00;57128.34;10107592;29;20077;-85
2023/04/02 12:47:44;;;;;;;3.22;1.70;;;;;;;-147.53;100.00;57128.34;10135965;29;20088;-82
2023/04/02 12:52:49;;;;;;;12.25;4.70;;;;;;;-147.53;100.00;57128.34;10133369;29;20052;-86
2023/04/02 12:57:58;;;;;;;6.85;2.33;;;;;;;-147.53;100.00;57128.34;10115390;29;20060;-83
2023/04/02 13:03:20;;;;;;;1.92;0.75;;;;;;;-147.53;100.00;57128.34;10119005;29;20053;-82
2023/04/02 13:08:37;;;;;;;1.23;0.50;;;;;;;-147.53;100.00;57128.34;10095354;29;20052;-78
2023/04/02 13:13:42;;;;;;;0.50;0.35;;;;;;;-147.53;100.00;57128.34;10117566;29;20097;-81
2023/04/02 13:18:46;;;;;;;1.30;0.30;;;;;;;-147.53;100.00;57128.34;10104684;29;20053;-79
2023/04/02 13:23:48;;;;;;;2.13;0.30;;;;;;;-147.53;100.00;57128.34;10117752;29;20081;-79
2023/04/02 13:29:01;;;;;;;0.82;0.57;;;;;;;-147.53;100.00;57128.34;10133083;29;20072;-76
2023/04/02 13:34:03;;;;;;;1.17;0.38;;;;;;;-147.53;100.00;57128.34;10096798;29;20112;-76
2023/04/02 13:39:05;;;;;;;0.73;0.40;;;;;;;-147.53;100.00;57128.34;10119544;29;20053;-77
2023/04/02 13:44:21;;;;;;;0.32;0.25;;;;;;;-147.53;100.00;57128.34;10119993;29;20426;-78
2023/04/02 13:49:26;;;;;;;4.38;0.20;;;;;;;-147.53;100.00;57128.34;10114684;29;20080;-77
2023/04/02 13:54:36;;;;;;;1.75;0.40;;;;;;;-147.53;100.00;57128.34;10125311;29;25059;-78
2023/04/02 13:59:37;;;;;;;1.02;0.50;;;;;;;-147.53;100.00;57128.34;10089520;29;20060;-76
2023/04/02 14:04:46;;;;;;;1.30;0.60;;;;;;;-147.53;100.00;57128.34;10113238;29;20056;-76
2023/04/02 14:10:21;;;;;;;1.20;0.40;;;;;;;-147.53;100.00;57128.34;10092038;29;20553;-76
2023/04/02 14:15:57;;;;;;;3.45;0.50;;;;;;;-147.53;100.00;57128.34;10097949;29;20136;-77
2023/04/02 14:21:26;;;;;;;3.35;0.57;;;;;;;-147.53;100.00;57128.34;10113135;29;20059;-77
2023/04/02 14:26:38;;;;;;;0.75;0.20;;;;;;;-147.53;100.00;57128.34;10090276;29;20048;-76
2023/04/02 14:31:45;;;;;;;1.77;0.60;;;;;;;-147.53;100.00;57128.34;10089949;29;20501;-76
2023/04/02 14:37:03;;;;;;;1.33;0.68;;;;;;;-147.53;100.00;57128.34;10103917;29;20060;-75
2023/04/02 14:42:12;;;;;;;0.65;0.43;;;;;;;-147.53;100.00;57128.34;10081171;29;20421;-76
2023/04/02 14:47:17;;;;;;;2.08;0.68;;;;;;;-147.53;100.00;57128.34;10099726;29;20061;-76
2023/04/02 14:52:22;;;;;;;0.77;0.50;;;;;;;-147.53;100.00;57128.34;10096054;29;20052;-75
2023/04/02 14:57:47;;;;;;;0.57;0.28;;;;;;;-147.53;100.00;57128.34;10121752;29;20453;-77
2023/04/02 15:03:01;;;;;;;0.40;0.40;;;;;;;-147.53;100.00;57128.34;10098844;29;20116;-78
2023/04/02 15:08:23;;;;;;;0.35;0.20;;;;;;;-147.53;100.00;57128.34;10106356;29;20075;-77
2023/04/02 15:13:32;;;;;;;1.98;0.22;;;;;;;-147.53;100.00;57128.34;10098892;29;20568;-77
2023/04/02 15:18:33;;;;;;;0.30;0.30;;;;;;;-147.53;100.00;57128.34;10106493;29;20052;-77
2023/04/02 15:23:57;;;;;;;0.30;0.30;;;;;;;-147.53;100.00;57128.34;10127702;29;20056;-77
2023/04/02 15:29:10;;;;;;;0.43;0.20;;;;;;;-147.53;100.00;57128.34;10096702;29;20044;-77
2023/04/02 15:34:35;;;;;;;0.10;0.10;;;;;;;-147.53;100.00;57128.34;10109951;29;20592;-76
2023/04/02 15:40:06;;;;;;;0.10;0.10;;;;;;;-147.53;100.00;57128.34;10093584;29;20623;-77
2023/04/02 15:45:11;;;;;;;1.08;0.40;;;;;;;-147.53;100.00;57128.34;10088177;29;20735;-76
2023/04/02 15:50:42;;;;;;;0.15;0.15;;;;;;;-147.53;100.00;57128.34;10086951;29;20056;-75
2023/04/02 15:55:52;;;;;;;0.10;0.10;;;;;;;-147.53;100.00;57128.34;10076296;29;20128;-76
2023/04/02 16:01:10;;;;;;;0.13;0.13;;;;;;;-147.53;100.00;57128.34;10063563;29;20061;-76
2023/04/02 16:06:17;;;;;;;0.47;0.30;;;;;;;-147.53;100.00;57128.34;10096667;29;20068;-77
2023/04/02 16:11:19;;;;;;;0.32;0.32;;;;;;;-147.53;100.00;57128.34;10095433;29;20494;-76
2023/04/02 16:16:29;;;;;;;2.17;0.63;;;;;;;-147.53;100.00;57128.34;10111536;29;20053;-76
2023/04/02 16:21:39;;;;;;;0.47;0.43;;;;;;;-147.53;100.00;57128.34;10101742;29;20049;-77
2023/04/02 16:26:57;;;;;;;0.40;0.40;;;;;;;-147.53;100.00;57128.34;10105834;29;20049;-76
2023/04/02 16:32:43;;;;;;;0.32;0.30;;;;;;;-147.53;100.00;57128.34;10091067;29;20073;-76
2023/04/02 16:37:51;;;;;;;2.83;0.32;;;;;;;-147.53;100.00;57128.34;10007443;29;20058;-76
2023/04/02 16:43:18;;;;;;;0.65;0.13;;;;;;;-147.53;100.00;57128.34;10092575;29;20056;-76
2023/04/02 16:48:34;;;;;;;0.80;0.32;;;;;;;-147.53;100.00;57128.34;10101285;29;20060;-76
2023/04/02 16:53:43;;;;;;;0.32;0.30;;;;;;;-147.53;100.00;57128.34;10115450;29;20045;-76
2023/04/02 16:59:39;;;;;;;0.63;0.40;;;;;;;-147.53;100.00;57128.34;10112451;29;20041;-76
2023/04/02 17:04:57;;;;;;;0.32;0.17;;;;;;;-147.53;100.00;57128.34;10093527;29;20109;-76
2023/04/02 17:10:15;;;;;;;0.60;0.28;;;;;;;-147.53;100.00;57128.34;10109922;29;20058;-76
2023/04/02 17:15:27;;;;;;;0.60;0.35;;;;;;;-147.53;100.00;57128.34;10107811;29;20053;-75
2023/04/02 17:20:31;;;;;;;0.57;0.17;;;;;;;-147.53;100.00;57128.34;10102200;29;20597;-76
2023/04/02 17:25:38;;;;;;;0.20;0.17;;;;;;;-147.53;100.00;57128.34;10107135;29;20055;-76
2023/04/02 17:30:44;;;;;;;0.10;0.10;;;;;;;-147.53;100.00;57128.34;10104857;29;20057;-76
2023/04/02 17:35:57;;;;;;;0.20;0.20;;;;;;;-147.53;100.00;57128.34;10104795;29;20061;-76
2023/04/02 17:40:59;;;;;;;0.28;0.28;;;;;;;-147.53;100.00;57128.34;10117314;29;20417;-76
2023/04/02 17:46:13;;;;;;;0.17;0.17;;;;;;;-147.53;100.00;57128.34;10112038;29;20057;-77
2023/04/02 17:51:34;;;;;;;0.10;0.10;;;;;;;-147.53;100.00;57128.34;10109040;29;20069;-76
2023/04/02 17:56:54;;;;;;;0.15;0.15;;;;;;;-147.53;100.00;57128.34;10107386;29;20067;-76
2023/04/02 18:02:12;;;;;;;0.20;0.20;;;;;;;-147.53;100.00;57128.34;10092292;29;20057;-76
2023/04/02 18:07:29;;;;;;;1.08;0.45;;;;;;;-147.53;100.00;57128.34;10091756;29;20939;-75
2023/04/02 18:12:36;;;;;;;1.75;0.32;;;;;;;-147.53;100.00;57128.34;10100952;29;20516;-76
2023/04/02 18:17:49;;;;;;;0.75;0.38;;;;;;;-147.53;100.00;57128.34;10086418;29;20057;-76
2023/04/02 18:23:33;;;;;;;0.17;0.17;;;;;;;-147.53;100.00;57128.34;10105120;29;20056;-75
2023/04/02 18:28:52;;;;;;;0.30;0.30;;;;;;;-147.53;100.00;57128.34;10094179;29;20065;-76
2023/04/02 18:34:18;;;;;;;0.20;0.20;;;;;;;-147.53;100.00;57128.34;10082162;29;20044;-75
2023/04/02 18:39:35;;;;;;;0.30;0.30;;;;;;;-147.53;100.00;57128.34;10091762;29;20053;-75
2023/04/02 18:45:00;;;;;;;0.40;0.20;;;;;;;-147.53;100.00;57128.34;10109598;29;20052;-76
2023/04/02 18:50:30;;;;;;;0.10;0.10;;;;;;;-147.53;100.00;57128.34;10111148;29;20047;-75
2023/04/02 18:55:32;;;;;;;0.35;0.35;;;;;;;-147.53;100.00;57128.34;10087677;29;20053;-75
2023/04/02 19:00:37;;;;;;;0.20;0.20;;;;;;;-147.53;100.00;57128.34;10092971;29;20049;-76
2023/04/02 19:05:43;;;;;;;0.75;0.38;;;;;;;-147.53;100.00;57128.34;10101602;29;20147;-76
2023/04/02 19:10:49;;;;;;;1.00;0.20;;;;;;;-147.53;100.00;57128.34;10075778;29;20053;-75
2023/04/02 19:16:03;;;;;;;0.30;0.30;;;;;;;-147.53;100.00;57128.34;10088014;29;20143;-76
2023/04/02 19:21:46;;;;;;;1.77;1.00;;;;;;;-147.53;100.00;57128.34;10103005;29;20061;-75
2023/04/02 19:26:59;;;;;;;0.30;0.30;;;;;;;-147.53;100.00;57128.34;10088296;29;20506;-76
2023/04/02 19:32:18;;;;;;;0.32;0.28;;;;;;;-147.53;100.00;57128.34;10088171;29;20140;-75
2023/04/02 19:37:28;;;;;;;0.17;0.17;;;;;;;-147.53;100.00;57128.34;10087961;29;20060;-75
2023/04/02 19:42:53;;;;;;;1.65;0.47;;;;;;;-147.53;100.00;57128.34;10094251;29;20090;-75
2023/04/02 19:47:57;;;;;;;0.10;0.10;;;;;;;-147.53;100.00;57128.34;10095502;29;20191;-76
2023/04/02 19:52:59;;;;;;;0.20;0.20;;;;;;;-147.53;100.00;57128.34;10102589;29;20115;-76
2023/04/02 19:58:00;;;;;;;6.70;0.25;;;;;;;-147.53;100.00;57128.34;10079008;29;20053;-75
2023/04/02 20:03:19;;;;;;;0.10;0.10;;;;;;;-147.53;100.00;57128.34;10079437;29;20516;-76
2023/04/02 20:08:20;;;;;;;1.13;0.32;;;;;;;-147.53;100.00;57128.34;10107278;29;20343;-75
2023/04/02 20:13:22;;;;;;;0.20;0.20;;;;;;;-147.53;100.00;57128.34;10084323;29;20120;-77
2023/04/02 20:18:25;;;;;;;0.10;0.10;;;;;;;-147.53;100.00;57128.34;10072873;29;20057;-75
2023/04/02 20:23:26;;;;;;;0.15;0.15;;;;;;;-147.53;100.00;57128.34;10088012;29;20064;-75
2023/04/02 20:28:29;;;;;;;1.75;0.60;;;;;;;-147.53;100.00;57128.34;10101747;29;20574;-76
2023/04/02 20:33:31;;;;;;;0.10;0.10;;;;;;;-147.53;100.00;57128.34;10080393;29;20044;-75
2023/04/02 20:38:34;;;;;;;0.10;0.10;;;;;;;-147.53;100.00;57128.34;10105232;29;20049;-75
2023/04/02 20:43:39;;;;;;;0.10;0.10;;;;;;;-147.53;100.00;57128.34;10097867;29;20055;-75
2023/04/02 20:48:41;;;;;;;0.10;0.10;;;;;;;-147.53;100.00;57128.34;10104680;29;20093;-76
2023/04/02 20:53:42;;;;;;;0.20;0.20;;;;;;;-147.53;100.00;57128.34;10089076;29;20421;-76
2023/04/02 20:58:44;;;;;;;0.10;0.10;;;;;;;-147.53;100.00;57128.34;10071614;29;20132;-76
2023/04/02 21:03:46;;;;;;;0.98;0.47;;;;;;;-147.53;100.00;57128.34;10093298;29;20171;-75
2023/04/02 21:08:48;;;;;;;0.30;0.22;;;;;;;-147.53;100.00;57128.34;10091045;29;20144;-77
2023/04/02 21:13:50;;;;;;;0.00;0.00;;;;;;;-147.53;100.00;57128.34;10091757;29;20053;-76
2023/04/02 21:18:53;;;;;;;0.00;0.00;;;;;;;-147.53;100.00;57128.34;10100003;29;20157;-76
2023/04/02 21:24:00;;;;;;;0.20;0.20;;;;;;;-147.53;100.00;57128.34;10097732;29;20068;-76
2023/04/02 21:29:02;;;;;;;0.10;0.10;;;;;;;-147.53;100.00;57128.34;10091977;29;20140;-75
2023/04/02 21:34:05;;;;;;;0.10;0.10;;;;;;;-147.53;100.00;57128.34;10122128;29;20048;-75
2023/04/02 21:39:09;;;;;;;0.10;0.10;;;;;;;-147.53;100.00;57128.34;10096976;29;20077;-76
2023/04/02 21:44:15;;;;;;;0.43;0.40;;;;;;;-147.53;100.00;57128.34;10066824;29;20049;-76
2023/04/02 21:49:18;;;;;;;0.20;0.20;;;;;;;-147.53;100.00;57128.34;10098242;29;20477;-77
2023/04/02 21:54:20;;;;;;;0.20;0.20;;;;;;;-147.53;100.00;57128.34;10104224;29;20049;-76
2023/04/02 21:59:22;;;;;;;1.17;0.47;;;;;;;-147.53;100.00;57128.34;10076241;29;20060;-76
2023/04/02 22:04:24;;;;;;;0.10;0.10;;;;;;;-147.53;100.00;57128.34;10091969;29;20041;-76
2023/04/02 22:09:26;;;;;;;0.57;0.57;;;;;;;-147.53;100.00;57128.34;10115905;29;20067;-77
2023/04/02 22:14:28;;;;;;;0.43;0.40;;;;;;;-147.53;100.00;57128.34;10094172;29;20521;-75
2023/04/02 22:19:31;;;;;;;0.10;0.10;;;;;;;-147.53;100.00;57128.34;10115332;29;20052;-75
2023/04/02 22:24:33;;;;;;;0.28;0.28;;;;;;;-147.53;100.00;57128.34;10099442;29;20041;-77
2023/04/02 22:29:35;;;;;;;0.22;0.13;;;;;;;-147.53;100.00;57128.34;10074874;29;20131;-76
2023/04/02 22:34:44;;;;;;;0.10;0.10;;;;;;;-147.53;100.00;57128.34;10097849;29;20253;-76
2023/04/02 22:39:45;;;;;;;0.45;0.35;;;;;;;-147.53;100.00;57128.34;10116573;29;20053;-76
2023/04/02 22:44:47;;;;;;;0.15;0.15;;;;;;;-147.53;100.00;57128.34;10090145;29;20045;-77
2023/04/02 22:49:48;;;;;;;0.10;0.10;;;;;;;-147.53;100.00;57128.34;10102486;29;20125;-77
2023/04/02 22:54:50;;;;;;;0.80;0.43;;;;;;;-147.53;100.00;57128.34;10092679;29;20429;-75
2023/04/02 22:59:52;;;;;;;0.28;0.28;;;;;;;-147.53;100.00;57128.34;10084022;29;20044;-76
2023/04/02 23:04:53;;;;;;;0.10;0.10;;;;;;;-147.53;100.00;57128.34;10076948;29;20664;-74
2023/04/02 23:09:55;;;;;;;1.17;0.63;;;;;;;-147.53;100.00;57128.34;10097090;29;20502;-76
2023/04/02 23:14:56;;;;;;;0.10;0.10;;;;;;;-147.53;100.00;57128.34;10093188;29;20123;-77
2023/04/02 23:19:58;;;;;;;8.30;0.63;;;;;;;-147.53;100.00;57128.34;10099387;29;20056;-77
2023/04/02 23:25:00;;;;;;;0.10;0.10;;;;;;;-147.53;100.00;57128.34;10106606;29;20413;-76